createdAt,value
2019-02-28T00:00:37.266Z,101044.44
2019-02-28T00:03:08.751Z,101031.13
2019-02-28T00:05:39.263Z,101016.00
2019-02-28T00:08:09.771Z,101017.83
2019-02-28T00:10:40.327Z,101025.44
2019-02-28T00:13:10.727Z,101026.27
2019-02-28T00:15:41.253Z,101024.70
2019-02-28T00:18:15.220Z,101018.40
2019-02-28T00:20:43.948Z,101006.05
2019-02-28T00:23:14.402Z,101005.00
2019-02-28T00:25:44.886Z,101003.40
2019-02-28T00:28:15.394Z,100999.16
2019-02-28T00:30:45.893Z,101003.92
2019-02-28T00:33:16.351Z,101000.34
2019-02-28T00:35:47.252Z,100995.31
2019-02-28T00:38:17.733Z,100989.53
2019-02-28T00:40:48.219Z,100979.95
2019-02-28T00:43:18.721Z,100979.13
2019-02-28T00:45:49.139Z,100984.56
2019-02-28T00:48:21.728Z,100975.02
2019-02-28T00:50:51.790Z,100976.94
2019-02-28T00:53:22.272Z,100980.56
2019-02-28T00:55:52.698Z,100971.27
2019-02-28T00:58:23.244Z,100964.10
2019-02-28T01:00:53.789Z,100967.60
2019-02-28T01:03:27.274Z,100954.88
2019-02-28T01:05:56.487Z,100952.45
2019-02-28T01:08:27.011Z,100930.14
2019-02-28T01:10:57.479Z,100929.61
2019-02-28T01:13:28.199Z,100930.75
2019-02-28T01:15:58.665Z,100925.50
2019-02-28T01:18:29.189Z,100915.20
2019-02-28T01:20:59.661Z,100918.05
2019-02-28T01:23:30.223Z,100920.27
2019-02-28T01:26:00.737Z,100919.36
2019-02-28T01:28:31.223Z,100908.86
2019-02-28T01:31:01.723Z,100905.36
2019-02-28T01:33:32.185Z,100906.23
2019-02-28T01:36:02.611Z,100904.59
2019-02-28T01:38:33.026Z,100895.94
2019-02-28T01:41:03.526Z,100894.63
2019-02-28T01:43:33.947Z,100888.80
2019-02-28T01:46:04.442Z,100880.13
2019-02-28T01:48:34.910Z,100882.05
2019-02-28T01:51:05.388Z,100873.30
2019-02-28T01:53:35.914Z,100873.11
2019-02-28T01:56:06.403Z,100868.28
2019-02-28T01:58:36.882Z,100870.85
2019-02-28T02:01:07.424Z,100873.47
2019-02-28T02:03:40.653Z,100870.33
2019-02-28T02:06:10.163Z,100864.30
2019-02-28T02:08:40.679Z,100871.21
2019-02-28T02:11:11.176Z,100870.66
2019-02-28T02:13:41.663Z,100865.58
2019-02-28T02:16:12.215Z,100854.98
2019-02-28T02:18:43.402Z,100844.36
2019-02-28T02:21:14.865Z,100843.45
2019-02-28T02:23:45.438Z,100838.95
2019-02-28T02:26:15.897Z,100835.80
2019-02-28T02:28:46.431Z,100830.88
2019-02-28T02:31:16.929Z,100836.13
2019-02-28T02:33:52.358Z,100829.93
2019-02-28T02:36:19.650Z,100829.86
2019-02-28T02:38:50.263Z,100819.70
2019-02-28T02:41:20.775Z,100820.66
2019-02-28T02:43:55.046Z,100817.16
2019-02-28T02:46:23.488Z,100823.82
2019-02-28T02:48:53.990Z,100825.81
2019-02-28T02:51:24.491Z,100830.70
2019-02-28T02:53:54.963Z,100830.60
2019-02-28T02:56:25.484Z,100830.11
2019-02-28T02:58:55.965Z,100834.80
2019-02-28T03:01:26.472Z,100840.09
2019-02-28T03:03:56.956Z,100833.92
2019-02-28T03:06:27.430Z,100836.73
2019-02-28T03:08:58.001Z,100831.13
2019-02-28T03:11:28.403Z,100838.17
2019-02-28T03:13:58.915Z,100853.37
2019-02-28T03:16:48.515Z,100859.34
2019-02-28T03:19:19.005Z,100830.84
2019-02-28T03:21:52.631Z,100831.16
2019-02-28T03:24:21.642Z,100828.31
2019-02-28T03:26:52.176Z,100837.80
2019-02-28T03:29:22.547Z,100839.84
2019-02-28T03:31:56.766Z,100840.33
2019-02-28T03:34:25.235Z,100834.38
2019-02-28T03:36:57.429Z,100831.84
2019-02-28T03:39:27.907Z,100824.44
2019-02-28T03:41:58.364Z,100826.08
2019-02-28T03:44:28.885Z,100834.80
2019-02-28T03:46:59.382Z,100830.59
2019-02-28T03:49:29.891Z,100840.80
2019-02-28T03:52:05.511Z,100826.95
2019-02-28T03:54:32.642Z,100822.11
2019-02-28T03:57:03.080Z,100832.59
2019-02-28T03:59:33.990Z,100824.38
2019-02-28T04:02:04.566Z,100822.52
2019-02-28T04:04:35.018Z,100823.83
2019-02-28T04:07:05.666Z,100811.09
2019-02-28T04:09:36.167Z,100811.22
2019-02-28T04:12:08.646Z,100814.30
2019-02-28T04:14:38.932Z,100794.20
2019-02-28T04:17:09.442Z,100800.30
2019-02-28T04:19:39.982Z,100795.06
2019-02-28T04:22:10.582Z,100793.84
2019-02-28T04:24:41.151Z,100792.26
2019-02-28T04:27:11.613Z,100792.08
2019-02-28T04:29:42.190Z,100795.38
2019-02-28T04:32:12.730Z,100797.98
2019-02-28T04:34:45.801Z,100795.25
2019-02-28T04:37:15.523Z,100794.52
2019-02-28T04:39:46.013Z,100787.79
2019-02-28T04:42:16.507Z,100783.28
2019-02-28T04:44:49.245Z,100781.42
2019-02-28T04:47:19.279Z,100792.81
2019-02-28T04:49:49.789Z,100803.50
2019-02-28T04:52:20.317Z,100796.83
2019-02-28T04:54:50.823Z,100788.70
2019-02-28T04:57:21.618Z,100787.39
2019-02-28T04:59:52.126Z,100782.37
2019-02-28T05:02:22.663Z,100781.12
2019-02-28T05:04:53.562Z,100776.83
2019-02-28T05:07:26.297Z,100766.66
2019-02-28T05:09:58.706Z,100758.31
2019-02-28T05:12:29.323Z,100759.44
2019-02-28T05:15:02.154Z,100767.75
2019-02-28T05:17:32.161Z,100783.47
2019-02-28T05:20:02.875Z,100786.30
2019-02-28T05:22:33.836Z,100780.30
2019-02-28T05:25:04.386Z,100771.49
2019-02-28T05:27:36.315Z,100763.45
2019-02-28T05:30:09.661Z,100763.36
2019-02-28T05:32:40.258Z,100761.92
2019-02-28T05:35:10.791Z,100765.13
2019-02-28T05:37:46.456Z,100761.56
2019-02-28T05:40:14.293Z,100774.02
2019-02-28T05:42:45.315Z,100770.28
2019-02-28T05:45:15.925Z,100763.27
2019-02-28T05:47:47.443Z,100759.25
2019-02-28T05:50:18.175Z,100753.70
2019-02-28T05:52:48.706Z,100756.14
2019-02-28T05:55:24.485Z,100747.38
2019-02-28T05:57:51.526Z,100748.69
2019-02-28T06:00:23.232Z,100741.65
2019-02-28T06:02:54.413Z,100748.02
2019-02-28T06:05:25.893Z,100745.98
2019-02-28T06:07:56.459Z,100744.00
2019-02-28T06:10:26.952Z,100744.86
2019-02-28T06:12:57.483Z,100761.42
2019-02-28T06:15:29.007Z,100765.53
2019-02-28T06:17:59.684Z,100772.80
2019-02-28T06:20:30.196Z,100778.23
2019-02-28T06:23:00.735Z,100776.77
2019-02-28T06:25:31.302Z,100784.05
2019-02-28T06:28:01.767Z,100779.20
2019-02-28T06:30:32.317Z,100777.32
2019-02-28T06:33:02.813Z,100782.73
2019-02-28T06:35:33.331Z,100785.17
2019-02-28T06:38:06.671Z,100798.75
2019-02-28T06:40:36.158Z,100804.27
2019-02-28T06:43:06.652Z,100809.68
2019-02-28T06:45:37.785Z,100804.08
2019-02-28T06:48:08.410Z,100817.53
2019-02-28T06:50:38.937Z,100808.16
2019-02-28T06:53:09.557Z,100794.02
2019-02-28T06:55:47.892Z,100792.17
2019-02-28T06:58:19.334Z,100804.68
2019-02-28T07:00:50.521Z,100805.90
2019-02-28T07:03:21.077Z,100805.58
2019-02-28T07:05:51.651Z,100798.94
2019-02-28T07:08:24.643Z,100778.11
2019-02-28T07:10:54.407Z,100783.49
2019-02-28T07:13:24.996Z,100775.86
2019-02-28T07:15:58.906Z,100779.42
2019-02-28T07:18:27.810Z,100775.81
2019-02-28T07:20:58.458Z,100768.84
2019-02-28T07:23:30.189Z,100769.30
2019-02-28T07:26:01.258Z,100769.53
2019-02-28T07:28:36.185Z,100782.13
2019-02-28T07:31:04.067Z,100782.13
2019-02-28T07:33:34.534Z,100792.80
2019-02-28T07:36:05.591Z,100808.09
2019-02-28T07:38:37.302Z,100817.48
2019-02-28T07:41:07.810Z,100806.27
2019-02-28T07:43:38.373Z,100811.24
2019-02-28T07:46:08.988Z,100797.16
2019-02-28T07:48:39.487Z,100798.82
2019-02-28T07:51:10.054Z,100798.82
2019-02-28T07:53:41.981Z,100795.06
2019-02-28T07:56:12.476Z,100801.12
2019-02-28T07:58:43.057Z,100798.86
2019-02-28T08:01:13.619Z,100792.44
2019-02-28T08:03:44.944Z,100791.34
2019-02-28T08:06:15.621Z,100800.73
2019-02-28T08:08:46.096Z,100806.52
2019-02-28T08:11:19.931Z,100810.08
2019-02-28T08:13:48.884Z,100812.97
2019-02-28T08:16:19.413Z,100810.63
2019-02-28T08:18:51.086Z,100821.60
2019-02-28T08:21:22.247Z,100834.80
2019-02-28T08:23:52.735Z,100832.17
2019-02-28T08:26:23.251Z,100829.73
2019-02-28T08:28:53.825Z,100830.82
2019-02-28T08:31:24.328Z,100830.63
2019-02-28T08:33:54.917Z,100835.20
2019-02-28T08:36:25.439Z,100837.89
2019-02-28T08:38:55.971Z,100837.14
2019-02-28T08:41:26.450Z,100840.40
2019-02-28T08:43:57.026Z,100846.91
2019-02-28T08:46:27.563Z,100852.33
2019-02-28T08:48:58.125Z,100847.58
2019-02-28T08:51:30.840Z,100845.23
2019-02-28T08:54:00.870Z,100845.33
2019-02-28T08:56:32.260Z,100850.10
2019-02-28T08:59:11.616Z,100857.14
2019-02-28T09:01:39.908Z,100852.41
2019-02-28T09:04:07.606Z,100857.37
2019-02-28T09:06:41.080Z,100854.84
2019-02-28T09:09:14.670Z,100859.81
2019-02-28T09:11:45.346Z,100857.46
2019-02-28T09:14:17.802Z,100869.62
2019-02-28T09:16:48.178Z,100865.25
2019-02-28T09:19:18.743Z,100872.16
2019-02-28T09:21:52.740Z,100871.21
2019-02-28T09:24:21.707Z,100866.55
2019-02-28T09:26:52.190Z,100864.06
2019-02-28T09:29:22.660Z,100859.64
2019-02-28T09:31:53.190Z,100849.36
2019-02-28T09:34:23.676Z,100856.63
2019-02-28T09:36:56.663Z,100877.06
2019-02-28T09:39:26.345Z,100878.05
2019-02-28T09:41:56.790Z,100881.04
2019-02-28T09:44:27.301Z,100877.31
2019-02-28T09:46:57.791Z,100870.51
2019-02-28T09:49:28.300Z,100878.38
2019-02-28T09:51:58.815Z,100871.44
2019-02-28T09:54:29.408Z,100875.62
2019-02-28T09:57:01.140Z,100873.91
2019-02-28T09:59:37.369Z,100878.64
2019-02-28T10:02:07.922Z,100882.38
2019-02-28T10:04:39.073Z,100880.52
2019-02-28T10:07:09.602Z,100882.75
2019-02-28T10:09:40.507Z,100882.13
2019-02-28T10:12:12.263Z,100887.04
2019-02-28T10:14:42.820Z,100890.96
2019-02-28T10:17:13.286Z,100892.78
2019-02-28T10:19:45.886Z,100893.68
2019-02-28T10:22:16.108Z,100893.75
2019-02-28T10:24:46.599Z,100882.56
2019-02-28T10:27:17.090Z,100880.38
2019-02-28T10:29:47.556Z,100891.03
2019-02-28T10:32:18.039Z,100901.80
2019-02-28T10:34:48.537Z,100901.33
2019-02-28T10:37:19.298Z,100903.28
2019-02-28T10:39:51.117Z,100899.00
2019-02-28T10:42:21.595Z,100895.58
2019-02-28T10:44:52.131Z,100900.50
2019-02-28T10:47:28.212Z,100896.53
2019-02-28T10:49:55.399Z,100895.58
2019-02-28T10:52:30.462Z,100897.25
2019-02-28T10:54:59.194Z,100900.60
2019-02-28T10:57:29.785Z,100901.36
2019-02-28T11:00:00.305Z,100910.88
2019-02-28T11:02:30.786Z,100909.33
2019-02-28T11:05:01.267Z,100901.89
2019-02-28T11:07:34.192Z,100898.10
2019-02-28T11:10:04.406Z,100897.87
2019-02-28T11:12:36.344Z,100896.78
2019-02-28T11:15:07.281Z,100886.39
2019-02-28T11:17:37.857Z,100888.48
2019-02-28T11:20:21.646Z,100898.79
2019-02-28T11:22:42.771Z,100912.73
2019-02-28T11:25:13.685Z,100913.26
2019-02-28T11:27:44.251Z,100920.89
2019-02-28T11:30:16.539Z,100921.13
2019-02-28T11:32:47.105Z,100928.05
2019-02-28T11:35:20.062Z,100910.80
2019-02-28T11:37:50.023Z,100917.63
2019-02-28T11:40:22.672Z,100906.01
2019-02-28T11:42:53.126Z,100889.62
2019-02-28T11:45:25.716Z,100886.45
2019-02-28T11:47:58.203Z,100895.84
2019-02-28T11:50:28.660Z,100899.84
2019-02-28T11:53:03.278Z,100893.95
2019-02-28T11:55:31.418Z,100898.36
2019-02-28T11:58:01.936Z,100886.38
2019-02-28T12:00:35.647Z,100903.23
2019-02-28T12:03:05.968Z,100898.34
2019-02-28T12:05:36.700Z,100898.18
2019-02-28T12:08:10.481Z,100897.72
2019-02-28T12:10:39.372Z,100894.30
2019-02-28T12:13:09.864Z,100885.70
2019-02-28T12:15:40.373Z,100895.30
2019-02-28T12:18:10.844Z,100887.05
2019-02-28T12:20:41.324Z,100890.23
2019-02-28T12:23:11.789Z,100898.98
2019-02-28T12:25:42.929Z,100887.92
2019-02-28T12:28:14.207Z,100877.00
2019-02-28T12:30:44.667Z,100877.09
2019-02-28T12:33:15.498Z,100882.32
2019-02-28T12:35:47.385Z,100875.91
2019-02-28T12:38:17.883Z,100868.11
2019-02-28T12:40:49.502Z,100862.09
2019-02-28T12:43:20.279Z,100875.53
2019-02-28T12:45:50.845Z,100884.93
2019-02-28T12:48:21.348Z,100882.30
2019-02-28T12:50:51.851Z,100886.63
2019-02-28T12:53:25.271Z,100882.89
2019-02-28T12:55:54.557Z,100875.45
2019-02-28T12:58:25.009Z,100877.83
2019-02-28T13:00:56.450Z,100889.52
2019-02-28T13:03:27.682Z,100882.77
2019-02-28T13:05:58.215Z,100875.50
2019-02-28T13:08:28.777Z,100875.19
2019-02-28T13:11:03.487Z,100861.31
2019-02-28T13:13:31.573Z,100857.09
2019-02-28T13:16:02.058Z,100865.07
2019-02-28T13:18:32.558Z,100870.17
2019-02-28T13:21:06.209Z,100863.16
2019-02-28T13:23:35.229Z,100858.64
2019-02-28T13:26:05.851Z,100856.97
2019-02-28T13:28:36.331Z,100858.42
2019-02-28T13:31:06.824Z,100859.59
2019-02-28T13:33:37.329Z,100862.29
2019-02-28T13:36:08.329Z,100859.48
2019-02-28T13:38:38.787Z,100865.13
2019-02-28T13:41:09.319Z,100858.40
2019-02-28T13:43:39.791Z,100861.27
2019-02-28T13:46:12.934Z,100850.76
2019-02-28T13:48:42.578Z,100850.11
2019-02-28T13:51:13.093Z,100850.98
2019-02-28T13:53:43.505Z,100855.88
2019-02-28T13:56:14.008Z,100858.35
2019-02-28T13:58:44.525Z,100859.05
2019-02-28T14:01:15.041Z,100844.88
2019-02-28T14:03:45.957Z,100840.59
2019-02-28T14:06:19.782Z,100846.22
2019-02-28T14:08:49.647Z,100857.09
2019-02-28T14:11:20.453Z,100853.89
2019-02-28T14:13:50.868Z,100856.06
2019-02-28T14:16:26.336Z,100857.20
2019-02-28T14:18:54.763Z,100852.76
2019-02-28T14:21:25.436Z,100857.55
2019-02-28T14:23:56.773Z,100852.76
2019-02-28T14:26:27.388Z,100855.91
2019-02-28T14:28:57.928Z,100854.08
2019-02-28T14:31:29.469Z,100862.86
2019-02-28T14:34:00.744Z,100862.01
2019-02-28T14:36:31.350Z,100865.35
2019-02-28T14:39:04.794Z,100857.75
2019-02-28T14:41:34.023Z,100861.53
2019-02-28T14:44:04.558Z,100864.30
2019-02-28T14:46:35.084Z,100860.64
2019-02-28T14:49:05.612Z,100859.54
2019-02-28T14:51:36.149Z,100866.23
2019-02-28T14:54:06.701Z,100869.78
2019-02-28T14:56:39.520Z,100864.43
2019-02-28T14:59:09.333Z,100867.23
2019-02-28T15:01:39.869Z,100868.73
2019-02-28T15:04:10.333Z,100864.96
2019-02-28T15:06:40.820Z,100871.52
2019-02-28T15:09:18.920Z,100876.14
2019-02-28T15:11:49.395Z,100879.47
2019-02-28T15:14:19.839Z,100883.43
2019-02-28T15:16:50.411Z,100885.77
2019-02-28T15:19:21.338Z,100885.08
2019-02-28T15:21:53.071Z,100880.09
2019-02-28T15:24:23.546Z,100877.49
2019-02-28T15:26:54.095Z,100880.09
2019-02-28T15:29:26.308Z,100881.70
2019-02-28T15:31:56.854Z,100876.50
2019-02-28T15:34:27.393Z,100878.80
2019-02-28T15:36:59.344Z,100885.00
2019-02-28T15:39:30.227Z,100877.91
2019-02-28T15:42:00.705Z,100876.97
2019-02-28T15:44:31.224Z,100875.45
2019-02-28T15:47:01.729Z,100878.08
2019-02-28T15:49:32.253Z,100878.52
2019-02-28T15:52:05.292Z,100873.98
2019-02-28T15:54:35.145Z,100873.45
2019-02-28T15:57:05.743Z,100874.61
2019-02-28T15:59:36.310Z,100870.84
2019-02-28T16:02:07.273Z,100871.81
2019-02-28T16:04:37.955Z,100860.59
2019-02-28T16:07:08.450Z,100860.11
2019-02-28T16:09:39.062Z,100853.77
2019-02-28T16:12:12.484Z,100853.09
2019-02-28T16:14:42.499Z,100856.17
2019-02-28T16:17:13.071Z,100854.08
2019-02-28T16:19:43.596Z,100852.14
2019-02-28T16:22:18.228Z,100852.73
2019-02-28T16:24:47.475Z,100851.84
2019-02-28T16:27:17.954Z,100850.14
2019-02-28T16:29:48.393Z,100852.73
2019-02-28T16:32:18.850Z,100845.55
2019-02-28T16:34:50.697Z,100852.83
2019-02-28T16:37:21.177Z,100853.25
2019-02-28T16:39:51.712Z,100845.74
2019-02-28T16:42:24.260Z,100847.28
2019-02-28T16:44:54.493Z,100839.80
2019-02-28T16:47:25.218Z,100837.34
2019-02-28T16:49:55.723Z,100837.15
2019-02-28T16:52:26.245Z,100842.69
2019-02-28T16:54:57.071Z,100838.30
2019-02-28T16:57:27.968Z,100836.13
2019-02-28T16:59:58.473Z,100838.98
2019-02-28T17:02:29.267Z,100839.70
2019-02-28T17:05:00.636Z,100835.25
2019-02-28T17:07:31.141Z,100837.45
2019-02-28T17:10:04.591Z,100849.31
2019-02-28T17:12:46.649Z,100843.02
2019-02-28T17:15:24.038Z,100849.31
2019-02-28T17:17:58.247Z,100858.27
2019-02-28T17:20:33.828Z,100854.23
2019-02-28T17:23:01.455Z,100859.74
2019-02-28T17:25:32.687Z,100864.17
2019-02-28T17:28:40.159Z,100855.09
2019-02-28T17:31:35.450Z,100854.33
2019-02-28T17:34:06.198Z,100858.86
2019-02-28T17:36:36.708Z,100862.30
2019-02-28T17:39:11.368Z,100861.05
2019-02-28T17:41:41.572Z,100854.82
2019-02-28T17:45:15.496Z,100859.66
2019-02-28T17:48:48.620Z,100858.04
2019-02-28T17:51:58.563Z,100860.06
2019-02-28T17:55:11.551Z,100859.72
2019-02-28T17:58:09.451Z,100857.28
2019-02-28T18:01:51.009Z,100853.92
2019-02-28T18:05:06.417Z,100853.92
2019-02-28T18:08:37.592Z,100859.66
2019-02-28T18:12:06.023Z,100854.00
2019-02-28T18:15:18.311Z,100849.44
2019-02-28T18:19:00.832Z,100858.80
2019-02-28T18:22:25.868Z,100859.94
2019-02-28T18:25:30.691Z,100864.47
2019-02-28T18:28:58.809Z,100874.41
2019-02-28T18:31:29.539Z,100872.52
2019-02-28T18:34:16.997Z,100870.30
2019-02-28T18:36:47.545Z,100865.05
2019-02-28T18:39:18.100Z,100865.52
2019-02-28T18:41:50.739Z,100870.66
2019-02-28T18:44:21.391Z,100873.55
2019-02-28T18:46:52.324Z,100868.86
2019-02-28T18:49:23.017Z,100870.66
2019-02-28T18:51:53.606Z,100864.47
2019-02-28T18:54:24.072Z,100860.91
2019-02-28T18:56:54.554Z,100857.14
2019-02-28T18:59:25.891Z,100859.13
2019-02-28T19:01:56.612Z,100848.83
2019-02-28T19:04:27.075Z,100850.95
2019-02-28T19:06:57.595Z,100846.25
2019-02-28T19:09:28.134Z,100851.81
2019-02-28T19:11:58.700Z,100857.19
2019-02-28T19:14:29.200Z,100856.78
2019-02-28T19:17:00.832Z,100852.80
2019-02-28T19:19:31.955Z,100854.16
2019-02-28T19:22:02.467Z,100856.07
2019-02-28T19:24:33.032Z,100861.00
2019-02-28T19:27:03.572Z,100856.80
2019-02-28T19:29:34.119Z,100862.04
2019-02-28T19:32:04.754Z,100855.47
2019-02-28T19:34:35.317Z,100854.75
2019-02-28T19:37:05.782Z,100849.69
2019-02-28T19:39:36.354Z,100852.41
2019-02-28T19:42:06.898Z,100850.73
2019-02-28T19:44:37.432Z,100852.91
2019-02-28T19:47:07.952Z,100855.08
2019-02-28T19:49:38.555Z,100848.17
2019-02-28T19:52:09.093Z,100846.63
2019-02-28T19:54:39.719Z,100837.00
2019-02-28T19:57:10.310Z,100841.44
2019-02-28T19:59:40.889Z,100841.90
2019-02-28T20:02:11.898Z,100841.89
2019-02-28T20:04:42.420Z,100840.59
2019-02-28T20:07:14.870Z,100834.98
2019-02-28T20:09:45.312Z,100839.99
2019-02-28T20:12:15.885Z,100829.15
2019-02-28T20:14:46.517Z,100835.24
2019-02-28T20:17:17.071Z,100827.13
2019-02-28T20:19:50.807Z,100828.03
2019-02-28T20:22:21.454Z,100821.69
2019-02-28T20:24:52.036Z,100823.73
2019-02-28T20:27:22.560Z,100820.75
2019-02-28T20:29:55.323Z,100817.41
2019-02-28T20:32:25.400Z,100810.69
2019-02-28T20:34:56.016Z,100814.44
2019-02-28T20:37:26.549Z,100812.77
2019-02-28T20:39:57.126Z,100809.52
2019-02-28T20:42:27.684Z,100815.78
2019-02-28T20:44:58.216Z,100820.17
2019-02-28T20:47:28.769Z,100818.67
2019-02-28T20:49:59.341Z,100826.05
2019-02-28T20:52:30.020Z,100822.39
2019-02-28T20:55:00.751Z,100829.61
2019-02-28T20:57:31.287Z,100830.66
2019-02-28T21:00:01.871Z,100829.47
2019-02-28T21:02:32.381Z,100826.45
2019-02-28T21:05:02.947Z,100832.81
2019-02-28T21:07:33.478Z,100825.31
2019-02-28T21:10:05.162Z,100817.09
2019-02-28T21:12:35.890Z,100814.66
2019-02-28T21:15:08.061Z,100819.17
2019-02-28T21:17:38.572Z,100823.65
2019-02-28T21:20:12.177Z,100828.70
2019-02-28T21:22:42.612Z,100825.23
2019-02-28T21:25:32.322Z,100824.78
2019-02-28T21:28:02.811Z,100833.09
2019-02-28T21:30:33.393Z,100827.48
2019-02-28T21:33:03.902Z,100822.89
2019-02-28T21:35:34.528Z,100829.38
2019-02-28T21:38:05.092Z,100830.29
2019-02-28T21:40:35.609Z,100834.70
2019-02-28T21:43:06.188Z,100829.47
2019-02-28T21:45:37.020Z,100827.30
2019-02-28T21:48:07.621Z,100823.83
2019-02-28T21:50:38.140Z,100815.48
2019-02-28T21:53:08.643Z,100813.22
2019-02-28T21:55:39.158Z,100811.72
2019-02-28T21:58:09.679Z,100816.52
2019-02-28T22:00:40.205Z,100810.73
2019-02-28T22:03:10.747Z,100807.17
2019-02-28T22:05:41.350Z,100806.53
2019-02-28T22:08:11.928Z,100808.70
2019-02-28T22:10:42.546Z,100815.61
2019-02-28T22:13:13.210Z,100817.77
2019-02-28T22:15:43.785Z,100811.31
2019-02-28T22:18:14.611Z,100813.72
2019-02-28T22:20:45.735Z,100815.61
2019-02-28T22:23:16.615Z,100814.80
2019-02-28T22:25:47.397Z,100810.69
2019-02-28T22:28:18.091Z,100805.36
2019-02-28T22:31:08.001Z,100810.37
2019-02-28T22:33:55.685Z,100804.50
2019-02-28T22:36:30.184Z,100807.80
2019-02-28T22:39:00.843Z,100801.25
2019-02-28T22:41:31.500Z,100802.15
2019-02-28T22:44:02.075Z,100800.84
2019-02-28T22:46:32.784Z,100801.21
2019-02-28T22:49:03.416Z,100797.95
2019-02-28T22:51:34.073Z,100798.86
2019-02-28T22:54:04.745Z,100795.24
2019-02-28T22:56:35.353Z,100790.86
2019-02-28T22:59:05.941Z,100794.34
2019-02-28T23:01:37.558Z,100792.27
2019-02-28T23:04:08.417Z,100790.50
2019-02-28T23:06:39.083Z,100786.27
2019-02-28T23:09:09.658Z,100783.82
2019-02-28T23:11:40.309Z,100775.87
2019-02-28T23:14:10.892Z,100778.75
2019-02-28T23:16:41.489Z,100774.34
2019-02-28T23:19:12.224Z,100769.41
2019-02-28T23:21:42.806Z,100764.77
2019-02-28T23:24:13.500Z,100762.06
2019-02-28T23:27:18.862Z,100760.39
2019-02-28T23:30:12.622Z,100760.39
2019-02-28T23:32:59.356Z,100762.16
2019-02-28T23:35:49.974Z,100761.06
2019-02-28T23:38:20.602Z,100760.17
2019-02-28T23:40:51.235Z,100746.44
2019-02-28T23:43:21.923Z,100753.16
2019-02-28T23:45:52.592Z,100743.64
2019-02-28T23:48:23.272Z,100745.50
2019-02-28T23:50:53.973Z,100749.23
2019-02-28T23:53:24.512Z,100750.81
2019-02-28T23:55:55.157Z,100746.25
2019-02-28T23:58:25.842Z,100747.38
